createdAt,value
2022-10-10T00:01:40.886Z,0.88
2022-10-10T00:04:08.816Z,1.17
2022-10-10T00:06:36.893Z,1.00
2022-10-10T00:09:05.828Z,1.30
2022-10-10T00:11:36.318Z,1.00
2022-10-10T00:14:04.533Z,1.00
2022-10-10T00:16:32.513Z,1.25
2022-10-10T00:19:00.417Z,0.93
2022-10-10T00:21:28.345Z,1.13
2022-10-10T00:23:56.426Z,1.23
2022-10-10T00:26:24.308Z,0.90
2022-10-10T00:28:53.669Z,1.20
2022-10-10T00:31:21.694Z,1.45
2022-10-10T00:33:49.636Z,0.68
2022-10-10T00:36:20.513Z,1.17
2022-10-10T00:38:49.213Z,1.25
2022-10-10T00:41:17.227Z,1.02
2022-10-10T00:43:45.062Z,1.08
2022-10-10T00:46:14.809Z,1.52
2022-10-10T00:48:46.329Z,1.05
2022-10-10T00:51:17.860Z,0.70
2022-10-10T00:53:49.116Z,1.50
2022-10-10T00:56:19.665Z,1.10
2022-10-10T00:58:51.711Z,1.20
2022-10-10T01:01:21.401Z,0.90
2022-10-10T01:03:49.408Z,1.52
2022-10-10T01:06:17.370Z,1.95
2022-10-10T01:08:45.589Z,1.15
2022-10-10T01:11:29.968Z,1.20
2022-10-10T01:14:09.302Z,1.15
2022-10-10T01:16:48.093Z,1.35
2022-10-10T01:19:53.844Z,1.20
2022-10-10T01:22:31.148Z,1.30
2022-10-10T01:25:08.999Z,0.98
2022-10-10T01:27:42.921Z,1.10
2022-10-10T01:30:15.558Z,1.25
2022-10-10T01:32:53.011Z,0.93
2022-10-10T01:35:32.781Z,1.27
2022-10-10T01:38:11.042Z,1.20
2022-10-10T01:40:48.746Z,1.30
2022-10-10T01:43:18.080Z,1.30
2022-10-10T01:45:47.883Z,1.25
2022-10-10T01:48:19.053Z,1.17
2022-10-10T01:51:04.269Z,1.13
2022-10-10T01:53:41.844Z,1.10
2022-10-10T01:56:14.978Z,1.20
2022-10-10T01:59:10.917Z,1.75
2022-10-10T02:01:49.188Z,1.35
2022-10-10T02:04:23.967Z,1.20
2022-10-10T02:06:56.615Z,1.30
2022-10-10T02:09:30.357Z,1.33
2022-10-10T02:12:01.086Z,0.95
2022-10-10T02:14:33.322Z,1.33
2022-10-10T02:17:06.219Z,1.27
2022-10-10T02:19:34.472Z,1.90
2022-10-10T02:22:03.447Z,1.30
2022-10-10T02:24:31.536Z,1.20
2022-10-10T02:27:04.740Z,1.13
2022-10-10T02:29:36.950Z,1.48
2022-10-10T02:32:10.938Z,1.10
2022-10-10T02:34:42.385Z,1.10
2022-10-10T02:37:13.897Z,1.63
2022-10-10T02:39:45.450Z,1.00
2022-10-10T02:42:16.285Z,1.00
2022-10-10T02:44:45.001Z,1.08
2022-10-10T02:47:14.784Z,1.23
2022-10-10T02:49:42.861Z,1.27
2022-10-10T02:52:11.944Z,1.10
2022-10-10T02:54:39.902Z,1.05
2022-10-10T02:57:07.970Z,1.20
2022-10-10T02:59:36.237Z,1.10
2022-10-10T03:02:04.249Z,0.90
2022-10-10T03:04:34.059Z,1.17
2022-10-10T03:07:01.976Z,1.15
2022-10-10T03:09:30.148Z,1.40
2022-10-10T03:11:58.100Z,1.92
2022-10-10T03:14:25.981Z,1.50
2022-10-10T03:16:54.240Z,1.35
2022-10-10T03:19:22.197Z,1.30
2022-10-10T03:21:51.604Z,1.10
2022-10-10T03:24:19.596Z,1.38
2022-10-10T03:26:47.819Z,1.40
2022-10-10T03:29:15.686Z,2.78
2022-10-10T03:31:43.718Z,2.92
2022-10-10T03:34:12.029Z,2.25
2022-10-10T03:36:39.925Z,1.58
2022-10-10T03:39:09.431Z,1.30
2022-10-10T03:41:37.485Z,1.58
2022-10-10T03:44:05.443Z,1.38
2022-10-10T03:46:33.270Z,1.70
2022-10-10T03:49:01.250Z,1.33
2022-10-10T03:51:29.189Z,1.30
2022-10-10T03:53:57.028Z,1.30
2022-10-10T03:56:26.711Z,1.23
2022-10-10T03:58:54.655Z,1.15
2022-10-10T04:01:22.528Z,1.33
2022-10-10T04:03:52.275Z,1.30
2022-10-10T04:06:20.407Z,1.17
2022-10-10T04:08:48.533Z,1.30
2022-10-10T04:11:16.557Z,1.08
2022-10-10T04:13:45.811Z,1.40
2022-10-10T04:16:13.744Z,1.20
2022-10-10T04:18:41.855Z,1.50
2022-10-10T04:21:13.509Z,1.25
2022-10-10T04:23:41.670Z,1.20
2022-10-10T04:26:10.205Z,1.02
2022-10-10T04:28:38.148Z,1.25
2022-10-10T04:31:07.770Z,1.33
2022-10-10T04:33:35.938Z,1.08
2022-10-10T04:36:03.867Z,1.45
2022-10-10T04:38:31.706Z,1.38
2022-10-10T04:40:59.872Z,1.33
2022-10-10T04:43:27.694Z,1.33
2022-10-10T04:45:57.600Z,1.38
2022-10-10T04:48:27.217Z,1.50
2022-10-10T04:50:57.089Z,1.35
2022-10-10T04:53:25.530Z,1.40
2022-10-10T04:55:53.853Z,1.73
2022-10-10T04:58:21.819Z,1.90
2022-10-10T05:00:53.063Z,1.42
2022-10-10T05:03:21.440Z,2.08
2022-10-10T05:05:50.848Z,1.05
2022-10-10T05:08:19.432Z,1.15
2022-10-10T05:10:48.398Z,1.40
2022-10-10T05:13:17.458Z,1.77
2022-10-10T05:15:45.471Z,1.25
2022-10-10T05:18:13.496Z,1.75
2022-10-10T05:20:43.922Z,1.92
2022-10-10T05:23:13.105Z,1.38
2022-10-10T05:25:41.630Z,1.30
2022-10-10T05:28:09.539Z,1.85
2022-10-10T05:30:37.411Z,1.50
2022-10-10T05:33:05.658Z,1.55
2022-10-10T05:35:33.622Z,1.40
2022-10-10T05:38:01.617Z,1.98
2022-10-10T05:40:31.022Z,1.30
2022-10-10T05:42:58.904Z,1.70
2022-10-10T05:45:26.822Z,1.55
2022-10-10T05:47:54.971Z,1.77
2022-10-10T05:50:31.654Z,1.73
2022-10-10T05:52:59.806Z,1.55
2022-10-10T05:55:27.807Z,1.90
2022-10-10T05:57:57.103Z,1.98
2022-10-10T06:00:25.263Z,1.95
2022-10-10T06:02:53.279Z,2.08
2022-10-10T06:05:21.493Z,1.70
2022-10-10T06:08:05.949Z,1.30
2022-10-10T06:10:37.878Z,2.10
2022-10-10T06:13:07.380Z,1.98
2022-10-10T06:15:35.412Z,1.40
2022-10-10T06:18:03.807Z,1.70
2022-10-10T06:20:31.872Z,1.80
2022-10-10T06:22:59.794Z,1.55
2022-10-10T06:25:40.078Z,1.52
2022-10-10T06:28:10.764Z,2.03
2022-10-10T06:30:41.806Z,1.67
2022-10-10T06:33:10.012Z,1.58
2022-10-10T06:35:41.849Z,1.50
2022-10-10T06:38:09.814Z,2.08
2022-10-10T06:40:37.930Z,1.40
2022-10-10T06:43:08.953Z,1.63
2022-10-10T06:45:38.997Z,1.80
2022-10-10T06:48:06.917Z,1.50
2022-10-10T06:50:35.235Z,1.50
2022-10-10T06:53:03.430Z,1.20
2022-10-10T06:55:31.579Z,1.73
2022-10-10T06:57:59.851Z,1.48
2022-10-10T07:00:27.918Z,1.17
2022-10-10T07:02:57.100Z,1.48
2022-10-10T07:05:25.275Z,1.98
2022-10-10T07:07:54.300Z,1.50
2022-10-10T07:10:22.162Z,1.50
2022-10-10T07:12:50.081Z,1.58
2022-10-10T07:15:18.225Z,1.40
2022-10-10T07:17:50.485Z,1.75
2022-10-10T07:20:22.874Z,1.42
2022-10-10T07:22:51.122Z,1.48
2022-10-10T07:25:19.234Z,1.92
2022-10-10T07:27:47.359Z,1.60
2022-10-10T07:30:15.414Z,1.30
2022-10-10T07:32:43.558Z,1.55
2022-10-10T07:35:12.570Z,1.40
2022-10-10T07:37:41.987Z,1.52
2022-10-10T07:40:10.733Z,1.42
2022-10-10T07:42:38.708Z,1.42
2022-10-10T07:45:07.833Z,1.67
2022-10-10T07:47:35.666Z,1.52
2022-10-10T07:50:03.716Z,1.20
2022-10-10T07:52:31.622Z,1.20
2022-10-10T07:55:00.855Z,1.30
2022-10-10T07:57:29.048Z,1.27
2022-10-10T07:59:57.012Z,1.42
2022-10-10T08:02:24.905Z,1.35
2022-10-10T08:04:52.898Z,1.40
2022-10-10T08:07:21.132Z,1.20
2022-10-10T08:09:49.048Z,1.15
2022-10-10T08:12:18.470Z,1.20
2022-10-10T08:14:46.534Z,1.98
2022-10-10T08:17:14.532Z,1.08
2022-10-10T08:19:42.498Z,1.38
2022-10-10T08:22:10.440Z,1.65
2022-10-10T08:24:38.309Z,1.20
2022-10-10T08:27:06.353Z,1.75
2022-10-10T08:29:35.884Z,1.60
2022-10-10T08:32:03.813Z,1.20
2022-10-10T08:34:32.314Z,1.42
2022-10-10T08:37:00.366Z,1.58
2022-10-10T08:39:28.238Z,1.48
2022-10-10T08:41:58.426Z,1.40
2022-10-10T08:44:31.572Z,1.10
2022-10-10T08:47:04.873Z,0.90
2022-10-10T08:49:36.029Z,1.17
2022-10-10T08:52:09.661Z,1.50
2022-10-10T08:54:40.223Z,1.65
2022-10-10T08:57:26.063Z,2.00
2022-10-10T08:59:58.974Z,1.60
2022-10-10T09:02:50.163Z,1.98
2022-10-10T09:05:25.463Z,2.03
2022-10-10T09:08:08.676Z,1.73
2022-10-10T09:10:47.009Z,1.35
2022-10-10T09:13:28.817Z,1.40
2022-10-10T09:16:00.380Z,1.20
2022-10-10T09:18:44.220Z,0.90
2022-10-10T09:21:17.314Z,1.00
2022-10-10T09:23:52.278Z,1.48
2022-10-10T09:26:23.442Z,1.35
2022-10-10T09:28:55.486Z,1.30
2022-10-10T09:31:29.038Z,1.55
2022-10-10T09:34:04.736Z,1.50
2022-10-10T09:36:37.199Z,1.52
2022-10-10T09:39:14.223Z,1.27
2022-10-10T09:41:46.940Z,1.30
2022-10-10T09:44:16.518Z,1.52
2022-10-10T09:46:44.450Z,1.50
2022-10-10T09:49:16.305Z,1.20
2022-10-10T09:51:44.426Z,1.20
2022-10-10T09:54:12.754Z,1.42
2022-10-10T09:56:44.701Z,0.90
2022-10-10T09:59:37.661Z,1.52
2022-10-10T10:02:16.692Z,1.45
2022-10-10T10:04:46.610Z,1.15
2022-10-10T10:07:28.406Z,1.42
2022-10-10T10:09:58.606Z,1.10
2022-10-10T10:12:29.673Z,1.80
2022-10-10T10:15:03.488Z,1.08
2022-10-10T10:17:31.655Z,1.25
2022-10-10T10:20:01.013Z,1.02
2022-10-10T10:22:35.694Z,1.50
2022-10-10T10:25:36.251Z,1.40
2022-10-10T10:28:20.686Z,1.02
2022-10-10T10:30:49.594Z,1.13
2022-10-10T10:33:29.255Z,1.25
2022-10-10T10:36:06.475Z,1.35
2022-10-10T10:38:43.679Z,1.33
2022-10-10T10:41:19.066Z,1.25
2022-10-10T10:43:59.640Z,1.35
2022-10-10T10:46:36.866Z,1.30
2022-10-10T10:49:15.585Z,1.05
2022-10-10T10:52:30.733Z,1.13
2022-10-10T10:55:11.622Z,1.33
2022-10-10T10:58:10.318Z,1.40
2022-10-10T11:01:20.904Z,1.38
2022-10-10T11:05:20.346Z,1.13
2022-10-10T11:07:17.304Z,0.98
2022-10-10T11:09:51.338Z,1.10
2022-10-10T11:12:32.353Z,1.30
2022-10-10T11:15:05.159Z,1.25
2022-10-10T11:17:39.933Z,1.50
2022-10-10T11:20:17.617Z,1.30
2022-10-10T11:22:51.584Z,1.50
2022-10-10T11:25:27.098Z,1.30
2022-10-10T11:28:01.229Z,1.05
2022-10-10T11:30:34.826Z,1.52
2022-10-10T11:33:12.530Z,1.48
2022-10-10T11:35:45.729Z,0.98
2022-10-10T11:38:22.180Z,0.93
2022-10-10T11:40:56.436Z,0.95
2022-10-10T11:43:35.289Z,1.10
2022-10-10T11:46:22.672Z,1.20
2022-10-10T11:48:59.892Z,1.33
2022-10-10T11:51:39.232Z,1.20
2022-10-10T11:54:14.490Z,1.50
2022-10-10T11:56:46.782Z,1.10
2022-10-10T11:59:22.045Z,0.93
2022-10-10T12:01:53.165Z,1.10
2022-10-10T12:04:21.360Z,1.30
2022-10-10T12:06:56.986Z,1.40
2022-10-10T12:09:30.008Z,1.00
2022-10-10T12:12:04.371Z,1.13
2022-10-10T12:14:33.642Z,1.33
2022-10-10T12:17:01.730Z,1.38
2022-10-10T12:19:30.762Z,1.25
2022-10-10T12:22:01.649Z,1.30
2022-10-10T12:24:30.960Z,1.35
2022-10-10T12:27:42.481Z,1.30
2022-10-10T12:30:24.824Z,1.48
2022-10-10T12:32:54.875Z,1.45
2022-10-10T12:35:38.030Z,1.17
2022-10-10T12:38:21.200Z,1.45
2022-10-10T12:41:15.471Z,1.60
2022-10-10T12:43:51.293Z,1.85
2022-10-10T12:46:22.938Z,1.15
2022-10-10T12:49:17.052Z,1.50
2022-10-10T12:51:47.323Z,1.55
2022-10-10T12:54:25.211Z,1.60
2022-10-10T12:57:02.762Z,1.40
2022-10-10T12:59:36.144Z,1.30
2022-10-10T13:02:08.207Z,1.60
2022-10-10T13:04:36.279Z,1.50
2022-10-10T13:07:05.662Z,1.30
2022-10-10T13:09:36.126Z,1.75
2022-10-10T13:12:07.103Z,1.60
2022-10-10T13:14:41.916Z,1.20
2022-10-10T13:17:28.322Z,1.30
2022-10-10T13:19:57.848Z,1.58
2022-10-10T13:22:27.007Z,1.65
2022-10-10T13:24:55.537Z,1.13
2022-10-10T13:27:26.276Z,1.30
2022-10-10T13:29:56.951Z,1.48
2022-10-10T13:32:27.977Z,1.40
2022-10-10T13:34:58.787Z,1.30
2022-10-10T13:37:27.492Z,1.40
2022-10-10T13:39:55.914Z,1.10
2022-10-10T13:42:34.041Z,1.52
2022-10-10T13:45:30.172Z,1.42
2022-10-10T13:48:13.296Z,1.50
2022-10-10T13:51:02.738Z,1.45
2022-10-10T13:53:37.129Z,1.40
2022-10-10T13:56:13.536Z,1.33
2022-10-10T13:58:44.685Z,1.40
2022-10-10T14:01:40.509Z,1.33
2022-10-10T14:04:22.974Z,1.42
2022-10-10T14:07:02.963Z,1.55
2022-10-10T14:09:34.580Z,1.52
2022-10-10T14:12:04.626Z,1.48
2022-10-10T14:14:41.685Z,1.45
2022-10-10T14:17:11.852Z,1.52
2022-10-10T14:19:41.094Z,1.33
2022-10-10T14:22:09.011Z,1.58
2022-10-10T14:24:37.097Z,1.30
2022-10-10T14:27:24.687Z,1.77
2022-10-10T14:29:53.988Z,2.03
2022-10-10T14:32:22.589Z,1.40
2022-10-10T14:34:52.074Z,1.70
2022-10-10T14:37:24.146Z,1.60
2022-10-10T14:39:52.606Z,1.65
2022-10-10T14:42:22.354Z,1.67
2022-10-10T14:44:50.269Z,1.73
2022-10-10T14:47:20.526Z,1.55
2022-10-10T14:49:48.855Z,1.40
2022-10-10T14:52:18.119Z,1.70
2022-10-10T14:54:46.048Z,1.40
2022-10-10T14:57:14.913Z,1.73
2022-10-10T14:59:47.407Z,1.70
2022-10-10T15:02:18.593Z,1.73
2022-10-10T15:04:46.405Z,1.60
2022-10-10T15:07:15.433Z,2.03
2022-10-10T15:10:09.633Z,1.92
2022-10-10T15:12:34.660Z,1.60
2022-10-10T15:15:02.670Z,1.67
2022-10-10T15:17:33.733Z,1.90
2022-10-10T15:20:01.857Z,1.63
2022-10-10T15:22:30.144Z,1.80
2022-10-10T15:25:00.080Z,2.10
2022-10-10T15:27:29.270Z,1.30
2022-10-10T15:29:57.393Z,1.58
2022-10-10T15:32:25.381Z,1.83
2022-10-10T15:34:53.879Z,1.67
2022-10-10T15:37:24.893Z,1.50
2022-10-10T15:39:52.717Z,2.33
2022-10-10T15:42:23.372Z,2.55
2022-10-10T15:44:52.376Z,1.77
2022-10-10T15:47:21.201Z,2.20
2022-10-10T15:49:49.205Z,1.60
2022-10-10T15:52:17.977Z,1.48
2022-10-10T15:54:48.583Z,2.20
2022-10-10T15:57:18.636Z,1.98
2022-10-10T15:59:48.701Z,1.60
2022-10-10T16:02:17.604Z,2.00
2022-10-10T16:04:46.684Z,2.00
2022-10-10T16:07:34.634Z,2.00
2022-10-10T16:10:03.417Z,2.03
2022-10-10T16:12:31.756Z,2.10
2022-10-10T16:15:04.804Z,2.35
2022-10-10T16:17:35.156Z,1.95
2022-10-10T16:20:03.167Z,1.90
2022-10-10T16:22:31.037Z,2.67
2022-10-10T16:27:47.263Z,1.90
2022-10-10T16:30:16.716Z,2.10
2022-10-10T16:32:44.638Z,2.05
2022-10-10T16:35:12.716Z,2.40
2022-10-10T16:37:40.772Z,1.85
2022-10-10T16:40:09.761Z,2.42
2022-10-10T16:42:37.878Z,2.60
2022-10-10T16:45:06.865Z,2.45
2022-10-10T16:47:36.062Z,2.50
2022-10-10T16:50:06.109Z,2.45
2022-10-10T16:52:38.008Z,2.67
2022-10-10T16:55:07.854Z,2.45
2022-10-10T16:57:36.497Z,2.03
2022-10-10T17:00:05.618Z,2.33
2022-10-10T17:02:33.468Z,2.22
2022-10-10T17:05:02.862Z,2.60
2022-10-10T17:07:30.810Z,2.50
2022-10-10T17:09:58.615Z,2.50
2022-10-10T17:12:26.600Z,2.22
2022-10-10T17:14:54.592Z,2.03
2022-10-10T17:17:22.657Z,2.75
2022-10-10T17:19:50.665Z,2.00
2022-10-10T17:22:20.139Z,2.10
2022-10-10T17:24:48.193Z,2.03
2022-10-10T17:27:16.193Z,2.30
2022-10-10T17:29:44.215Z,2.67
2022-10-10T17:32:12.062Z,2.00
2022-10-10T17:34:40.147Z,2.30
2022-10-10T17:37:08.257Z,1.98
2022-10-10T17:39:37.538Z,2.25
2022-10-10T17:42:05.945Z,1.95
2022-10-10T17:44:40.285Z,2.30
2022-10-10T17:47:11.635Z,2.22
2022-10-10T17:49:45.107Z,1.75
2022-10-10T17:52:15.584Z,2.10
2022-10-10T17:54:48.612Z,1.50
2022-10-10T17:57:16.673Z,1.80
2022-10-10T17:59:44.634Z,2.33
2022-10-10T18:02:16.462Z,2.10
2022-10-10T18:04:44.757Z,1.75
2022-10-10T18:07:12.994Z,2.10
2022-10-10T18:09:41.438Z,2.13
2022-10-10T18:12:11.049Z,2.28
2022-10-10T18:14:38.993Z,2.10
2022-10-10T18:17:07.005Z,1.88
2022-10-10T18:19:35.143Z,1.75
2022-10-10T18:22:03.162Z,2.40
2022-10-10T18:24:31.383Z,2.10
2022-10-10T18:26:59.536Z,1.98
2022-10-10T18:29:28.870Z,2.30
2022-10-10T18:31:56.972Z,2.30
2022-10-10T18:34:25.001Z,2.30
2022-10-10T18:36:54.286Z,2.15
2022-10-10T18:39:22.324Z,2.63
2022-10-10T18:41:50.608Z,3.00
2022-10-10T18:44:19.944Z,2.90
2022-10-10T18:46:50.722Z,2.30
2022-10-10T18:49:19.017Z,2.15
2022-10-10T18:51:47.101Z,3.28
2022-10-10T18:54:17.146Z,2.53
2022-10-10T18:56:46.506Z,2.50
2022-10-10T18:59:17.069Z,2.63
2022-10-10T19:01:46.732Z,3.38
2022-10-10T19:04:17.471Z,3.30
2022-10-10T19:06:45.528Z,3.35
2022-10-10T19:09:15.814Z,3.05
2022-10-10T19:11:45.695Z,3.15
2022-10-10T19:14:16.116Z,3.08
2022-10-10T19:16:45.633Z,3.55
2022-10-10T19:19:16.782Z,3.47
2022-10-10T19:21:47.395Z,3.10
2022-10-10T19:24:19.554Z,4.10
2022-10-10T19:26:52.324Z,3.38
2022-10-10T19:29:20.517Z,3.70
2022-10-10T19:31:48.493Z,3.65
2022-10-10T19:34:17.988Z,4.35
2022-10-10T19:36:45.936Z,4.03
2022-10-10T19:39:14.047Z,4.03
2022-10-10T19:41:42.104Z,4.05
2022-10-10T19:44:09.993Z,3.60
2022-10-10T19:46:38.008Z,4.40
2022-10-10T19:49:06.643Z,4.32
2022-10-10T19:51:36.031Z,4.68
2022-10-10T19:54:04.124Z,4.68
2022-10-10T19:56:32.146Z,4.53
2022-10-10T19:59:04.293Z,4.38
2022-10-10T20:01:33.158Z,4.72
2022-10-10T20:04:01.237Z,4.53
2022-10-10T20:06:29.417Z,4.43
2022-10-10T20:08:58.972Z,4.32
2022-10-10T20:11:27.716Z,4.18
2022-10-10T20:13:56.170Z,4.70
2022-10-10T20:16:25.389Z,4.38
2022-10-10T20:18:54.125Z,4.40
2022-10-10T20:21:25.434Z,4.30
2022-10-10T20:23:54.606Z,4.22
2022-10-10T20:26:26.696Z,4.70
2022-10-10T20:28:55.631Z,4.50
2022-10-10T20:31:25.243Z,4.20
2022-10-10T20:33:54.897Z,4.20
2022-10-10T20:36:24.099Z,4.18
2022-10-10T20:38:55.729Z,4.55
2022-10-10T20:41:26.864Z,4.05
2022-10-10T20:43:59.131Z,4.22
2022-10-10T20:46:29.272Z,4.32
2022-10-10T20:48:58.025Z,4.13
2022-10-10T20:51:27.286Z,4.28
2022-10-10T20:53:57.481Z,4.53
2022-10-10T20:56:27.973Z,4.82
2022-10-10T20:58:55.928Z,4.10
2022-10-10T21:01:25.955Z,4.40
2022-10-10T21:03:54.446Z,4.25
2022-10-10T21:06:24.666Z,4.22
2022-10-10T21:08:53.792Z,4.07
2022-10-10T21:11:26.645Z,4.68
2022-10-10T21:13:57.473Z,4.30
2022-10-10T21:16:27.605Z,4.50
2022-10-10T21:18:58.383Z,4.38
2022-10-10T21:21:28.396Z,4.40
2022-10-10T21:23:56.970Z,4.20
2022-10-10T21:26:28.360Z,4.43
2022-10-10T21:28:57.448Z,4.82
2022-10-10T21:31:27.118Z,4.70
2022-10-10T21:33:55.294Z,4.55
2022-10-10T21:36:24.778Z,4.45
2022-10-10T21:38:52.656Z,4.60
2022-10-10T21:41:21.859Z,4.38
2022-10-10T21:43:52.965Z,4.80
2022-10-10T21:46:23.604Z,4.68
2022-10-10T21:48:52.171Z,4.45
2022-10-10T21:51:20.225Z,4.97
2022-10-10T21:53:48.601Z,4.88
2022-10-10T21:56:16.944Z,4.38
2022-10-10T21:58:45.265Z,4.22
2022-10-10T22:01:16.483Z,4.38
2022-10-10T22:03:45.193Z,4.25
2022-10-10T22:06:15.901Z,3.92
2022-10-10T22:08:44.371Z,4.38
2022-10-10T22:11:14.481Z,4.57
2022-10-10T22:13:42.795Z,4.13
2022-10-10T22:16:11.771Z,4.07
2022-10-10T22:18:41.401Z,4.25
2022-10-10T22:21:13.065Z,3.92
2022-10-10T22:23:41.272Z,4.32
2022-10-10T22:26:10.513Z,4.10
2022-10-10T22:28:38.911Z,4.05
2022-10-10T22:31:07.600Z,4.32
2022-10-10T22:33:35.773Z,4.15
2022-10-10T22:36:06.791Z,4.25
2022-10-10T22:38:38.988Z,4.80
2022-10-10T22:41:07.333Z,4.93
2022-10-10T22:43:35.260Z,5.10
2022-10-10T22:46:04.327Z,4.38
2022-10-10T22:48:32.625Z,5.40
2022-10-10T22:51:02.728Z,4.82
2022-10-10T22:53:32.463Z,4.72
2022-10-10T22:56:00.974Z,4.38
2022-10-10T22:58:29.051Z,5.10
2022-10-10T23:00:57.040Z,4.88
2022-10-10T23:03:25.023Z,4.65
2022-10-10T23:05:52.847Z,4.75
2022-10-10T23:08:20.799Z,4.57
2022-10-10T23:10:50.214Z,4.57
2022-10-10T23:13:18.132Z,4.70
2022-10-10T23:15:46.414Z,4.78
2022-10-10T23:18:14.587Z,4.22
2022-10-10T23:20:42.681Z,4.88
2022-10-10T23:23:10.771Z,4.28
2022-10-10T23:25:41.776Z,4.50
2022-10-10T23:28:12.125Z,4.28
2022-10-10T23:30:40.569Z,4.50
2022-10-10T23:33:09.257Z,4.03
2022-10-10T23:35:37.446Z,4.75
2022-10-10T23:38:06.030Z,4.53
2022-10-10T23:40:34.243Z,4.60
2022-10-10T23:43:02.274Z,4.32
2022-10-10T23:45:31.526Z,4.57
2022-10-10T23:47:59.697Z,4.90
2022-10-10T23:50:27.830Z,4.82
2022-10-10T23:52:55.693Z,5.05
2022-10-10T23:55:23.867Z,4.85
2022-10-10T23:57:51.995Z,4.85
